Time;durP1;ratioP1;P1;durP2;ratioP2;P2;SDS_P1;SDS_P2;PMS_P1;PMS_P2;Temp;Humidity;BMP_temperature;BMP_pressure;BME280_temperature;BME280_humidity;BME280_pressure;Samples;Min_cycle;Max_cycle;Signal;HPM_P1;HPM_P2
2022/07/08 00:01:56;;;;;;;0.00;0.00;;;15.60;99.90;;;;;;5090212;28;20055;-68
2022/07/08 00:04:22;;;;;;;0.10;0.10;;;15.60;99.90;;;;;;5082051;28;20486;-68
2022/07/08 00:06:48;;;;;;;0.00;0.00;;;15.50;99.90;;;;;;5061851;28;20048;-68
2022/07/08 00:09:14;;;;;;;0.10;0.10;;;15.50;99.90;;;;;;5065546;28;20083;-68
2022/07/08 00:11:41;;;;;;;0.30;0.30;;;15.50;99.90;;;;;;5084119;28;20539;-67
2022/07/08 00:14:08;;;;;;;0.00;0.00;;;15.60;99.90;;;;;;5059961;28;20078;-68
2022/07/08 00:16:34;;;;;;;0.10;0.10;;;15.50;99.90;;;;;;5049128;28;20047;-68
2022/07/08 00:19:00;;;;;;;0.05;0.05;;;15.50;99.90;;;;;;5050889;28;20045;-68
2022/07/08 00:21:26;;;;;;;0.05;0.05;;;15.50;99.90;;;;;;5066297;28;20047;-68
2022/07/08 00:23:52;;;;;;;0.10;0.10;;;15.50;99.90;;;;;;5081665;28;20040;-68
2022/07/08 00:26:18;;;;;;;0.10;0.10;;;15.50;99.90;;;;;;5077290;28;20036;-68
2022/07/08 00:28:43;;;;;;;0.10;0.10;;;15.40;99.90;;;;;;5056597;28;20071;-68
2022/07/08 00:31:09;;;;;;;3.20;0.32;;;15.40;99.90;;;;;;5069376;28;20051;-68
2022/07/08 00:33:34;;;;;;;0.00;0.00;;;15.30;99.90;;;;;;5069069;28;20048;-68
2022/07/08 00:36:00;;;;;;;0.00;0.00;;;15.30;99.90;;;;;;5064112;28;20042;-68
2022/07/08 00:38:26;;;;;;;0.08;0.08;;;15.30;99.90;;;;;;5089922;28;20127;-68
2022/07/08 00:40:51;;;;;;;0.00;0.00;;;15.20;99.90;;;;;;5077395;28;20040;-68
2022/07/08 00:43:25;;;;;;;0.00;0.00;;;15.20;99.90;;;;;;5086308;28;20049;-68
2022/07/08 00:45:50;;;;;;;0.00;0.00;;;15.20;99.90;;;;;;5071932;28;20449;-68
2022/07/08 00:48:16;;;;;;;0.20;0.20;;;15.10;99.90;;;;;;5090307;28;20039;-68
2022/07/08 00:50:41;;;;;;;0.00;0.00;;;15.10;99.90;;;;;;5071855;28;20052;-68
2022/07/08 00:53:07;;;;;;;1.02;0.65;;;15.10;99.90;;;;;;5071877;28;20056;-68
2022/07/08 00:55:33;;;;;;;0.00;0.00;;;15.00;99.90;;;;;;5072080;28;20549;-68
2022/07/08 00:57:59;;;;;;;0.45;0.45;;;15.00;99.90;;;;;;5059577;28;20093;-68
2022/07/08 01:00:25;;;;;;;0.00;0.00;;;14.90;99.90;;;;;;5083434;28;20102;-68
2022/07/08 01:02:51;;;;;;;0.90;0.35;;;14.80;99.90;;;;;;5041724;28;20630;-68
2022/07/08 01:05:16;;;;;;;0.65;0.65;;;14.80;99.90;;;;;;5067741;28;20040;-68
2022/07/08 01:07:43;;;;;;;0.22;0.22;;;14.70;99.90;;;;;;5089092;28;20046;-68
2022/07/08 01:10:09;;;;;;;1.13;0.85;;;14.70;99.90;;;;;;5088182;28;20051;-68
2022/07/08 01:12:35;;;;;;;0.15;0.15;;;14.60;99.90;;;;;;5070233;28;20051;-68
2022/07/08 01:15:00;;;;;;;0.00;0.00;;;14.60;99.90;;;;;;5049327;28;20131;-68
2022/07/08 01:17:39;;;;;;;0.30;0.30;;;14.60;99.90;;;;;;5066380;28;20048;-68
2022/07/08 01:20:05;;;;;;;0.20;0.20;;;14.60;99.90;;;;;;5071594;28;20044;-68
2022/07/08 01:22:30;;;;;;;0.10;0.10;;;14.50;99.90;;;;;;5088421;28;20086;-68
2022/07/08 01:24:56;;;;;;;0.13;0.13;;;14.40;99.90;;;;;;5087918;28;20083;-68
2022/07/08 01:27:21;;;;;;;1.90;0.90;;;14.40;99.90;;;;;;5086216;28;20082;-68
2022/07/08 01:29:47;;;;;;;2.80;1.00;;;14.30;99.90;;;;;;5050302;28;20055;-68
2022/07/08 01:32:12;;;;;;;0.10;0.10;;;14.30;99.90;;;;;;5060461;28;20064;-68
2022/07/08 01:34:38;;;;;;;0.15;0.15;;;14.20;99.90;;;;;;5073725;28;20056;-68
2022/07/08 01:37:03;;;;;;;0.03;0.03;;;14.20;99.90;;;;;;5047765;28;20044;-68
2022/07/08 01:39:29;;;;;;;0.10;0.10;;;14.20;99.90;;;;;;5048285;28;20041;-67
2022/07/08 01:41:54;;;;;;;0.05;0.05;;;14.20;99.90;;;;;;5031396;28;20377;-68
2022/07/08 01:44:20;;;;;;;0.10;0.10;;;14.10;99.90;;;;;;5052795;28;20048;-68
2022/07/08 01:46:45;;;;;;;0.00;0.00;;;14.10;99.90;;;;;;5088718;28;20044;-68
2022/07/08 01:49:14;;;;;;;0.10;0.10;;;14.10;99.90;;;;;;5088907;28;20052;-68
2022/07/08 01:51:40;;;;;;;0.10;0.10;;;14.00;99.90;;;;;;5086920;28;20048;-68
2022/07/08 01:54:06;;;;;;;0.73;0.73;;;14.00;99.90;;;;;;5087126;28;20048;-67
2022/07/08 01:56:31;;;;;;;0.38;0.38;;;14.00;99.90;;;;;;5089361;28;20047;-68
2022/07/08 01:58:57;;;;;;;0.10;0.10;;;14.00;99.90;;;;;;5070986;28;20063;-68
2022/07/08 02:01:22;;;;;;;0.00;0.00;;;13.90;99.90;;;;;;5072614;28;20101;-68
2022/07/08 02:03:48;;;;;;;0.10;0.10;;;14.00;99.90;;;;;;5072920;28;20040;-68
2022/07/08 02:06:13;;;;;;;0.05;0.05;;;13.90;99.90;;;;;;5068249;28;20091;-68
2022/07/08 02:08:39;;;;;;;0.00;0.00;;;13.90;99.90;;;;;;5068823;28;20052;-68
2022/07/08 02:13:48;;;;;;;2.17;1.13;;;13.90;99.90;;;;;;5088569;28;20055;-68
2022/07/08 02:16:14;;;;;;;0.05;0.05;;;13.90;99.90;;;;;;5069927;28;20091;-68
2022/07/08 02:18:40;;;;;;;0.05;0.05;;;13.80;99.90;;;;;;5072676;28;20495;-67
2022/07/08 02:21:05;;;;;;;0.00;0.00;;;13.80;99.90;;;;;;5088109;28;20082;-68
2022/07/08 02:23:31;;;;;;;0.68;0.68;;;13.80;99.90;;;;;;5046548;28;20049;-68
2022/07/08 02:25:57;;;;;;;0.45;0.45;;;13.80;99.90;;;;;;5050910;28;20143;-68
2022/07/08 02:28:23;;;;;;;0.10;0.10;;;13.80;99.90;;;;;;5080817;28;20073;-68
2022/07/08 02:30:49;;;;;;;0.00;0.00;;;13.70;99.90;;;;;;5070768;28;20040;-67
2022/07/08 02:33:14;;;;;;;0.47;0.40;;;13.70;99.90;;;;;;5087341;28;20048;-68
2022/07/08 02:35:40;;;;;;;1.33;0.60;;;13.70;99.90;;;;;;5075080;28;20071;-68
2022/07/08 02:38:05;;;;;;;0.20;0.20;;;13.70;99.90;;;;;;5083801;28;20059;-68
2022/07/08 02:40:31;;;;;;;0.20;0.20;;;13.70;99.90;;;;;;5059978;28;20066;-68
2022/07/08 02:42:56;;;;;;;0.20;0.20;;;13.60;99.90;;;;;;5066137;28;20047;-68
2022/07/08 02:45:22;;;;;;;0.10;0.10;;;13.70;99.90;;;;;;5088518;28;20033;-68
2022/07/08 02:47:47;;;;;;;0.00;0.00;;;13.70;99.90;;;;;;5057768;28;20135;-68
2022/07/08 02:50:13;;;;;;;0.03;0.03;;;13.70;99.90;;;;;;5087753;28;20399;-68
2022/07/08 02:52:39;;;;;;;4.18;1.35;;;13.70;99.90;;;;;;5061457;28;20439;-68
2022/07/08 02:55:04;;;;;;;0.57;0.57;;;13.70;99.90;;;;;;5062149;28;20123;-68
2022/07/08 02:57:30;;;;;;;0.50;0.50;;;13.70;99.90;;;;;;5067390;28;20055;-67
2022/07/08 02:59:56;;;;;;;0.10;0.10;;;13.60;99.90;;;;;;5081071;28;20071;-68
2022/07/08 03:02:21;;;;;;;0.00;0.00;;;13.60;99.90;;;;;;5061802;28;20056;-68
2022/07/08 03:04:47;;;;;;;0.08;0.08;;;13.60;99.90;;;;;;5056461;28;20044;-68
2022/07/08 03:07:12;;;;;;;0.10;0.10;;;13.60;99.90;;;;;;5071875;28;20048;-68
2022/07/08 03:09:38;;;;;;;0.22;0.22;;;13.60;99.90;;;;;;5080996;28;20407;-68
2022/07/08 03:12:04;;;;;;;0.85;0.68;;;13.60;99.90;;;;;;5066087;28;20045;-68
2022/07/08 03:14:29;;;;;;;3.95;0.82;;;13.60;99.90;;;;;;5060654;28;20036;-68
2022/07/08 03:16:55;;;;;;;0.13;0.13;;;13.70;99.90;;;;;;5073289;28;20120;-68
2022/07/08 03:19:20;;;;;;;0.10;0.10;;;13.70;99.90;;;;;;5078243;28;20044;-68
2022/07/08 03:21:46;;;;;;;0.30;0.30;;;13.70;99.90;;;;;;5052643;28;20041;-68
2022/07/08 03:24:12;;;;;;;0.20;0.20;;;13.90;99.90;;;;;;5070406;28;20098;-68
2022/07/08 03:26:37;;;;;;;0.10;0.10;;;13.90;99.90;;;;;;5070840;28;20049;-68
2022/07/08 03:29:03;;;;;;;0.10;0.10;;;13.90;99.90;;;;;;5044820;28;20048;-67
2022/07/08 03:31:28;;;;;;;0.10;0.10;;;14.00;99.90;;;;;;5090914;28;20050;-68
2022/07/08 03:33:54;;;;;;;1.98;0.85;;;14.10;99.90;;;;;;5073649;28;20075;-68
2022/07/08 03:36:19;;;;;;;0.10;0.10;;;14.10;99.90;;;;;;5051323;28;20051;-68
2022/07/08 03:38:45;;;;;;;0.00;0.00;;;14.20;99.90;;;;;;5076001;28;20051;-68
2022/07/08 03:41:20;;;;;;;0.08;0.08;;;14.20;99.90;;;;;;5072183;28;20075;-68
2022/07/08 03:43:46;;;;;;;0.30;0.30;;;14.20;99.90;;;;;;5068487;28;20059;-68
2022/07/08 03:46:12;;;;;;;0.10;0.10;;;14.30;99.90;;;;;;5077532;28;20522;-68
2022/07/08 03:48:37;;;;;;;0.20;0.20;;;14.30;99.90;;;;;;5090019;28;20075;-68
2022/07/08 03:51:03;;;;;;;0.10;0.10;;;14.40;99.90;;;;;;5091293;28;20403;-68
2022/07/08 03:53:29;;;;;;;0.00;0.00;;;14.50;99.90;;;;;;5074001;28;20423;-68
2022/07/08 03:55:55;;;;;;;0.05;0.05;;;14.50;99.90;;;;;;5065568;28;20044;-68
2022/07/08 03:58:21;;;;;;;0.10;0.10;;;14.50;99.90;;;;;;5073835;28;20052;-68
2022/07/08 04:00:46;;;;;;;0.10;0.10;;;14.50;99.90;;;;;;5084811;28;20465;-68
2022/07/08 04:03:12;;;;;;;0.10;0.10;;;14.60;99.90;;;;;;5091107;28;20044;-68
2022/07/08 04:05:38;;;;;;;0.00;0.00;;;14.60;99.90;;;;;;5068822;28;20211;-67
2022/07/08 04:08:04;;;;;;;0.10;0.10;;;14.60;99.90;;;;;;5063893;28;20414;-68
2022/07/08 04:10:30;;;;;;;1.52;0.57;;;14.70;99.90;;;;;;5049460;28;20094;-68
2022/07/08 04:12:56;;;;;;;0.10;0.10;;;14.70;99.90;;;;;;5072019;28;20045;-68
2022/07/08 04:15:22;;;;;;;0.00;0.00;;;14.80;99.90;;;;;;5076651;28;20649;-68
2022/07/08 04:17:47;;;;;;;0.10;0.10;;;14.80;99.90;;;;;;5069728;28;20052;-68
2022/07/08 04:20:13;;;;;;;0.10;0.10;;;14.90;99.90;;;;;;5067973;28;20803;-68
2022/07/08 04:22:39;;;;;;;0.10;0.10;;;14.90;99.90;;;;;;5045653;28;20062;-68
2022/07/08 04:25:06;;;;;;;0.05;0.05;;;14.90;99.90;;;;;;5074606;28;20110;-68
2022/07/08 04:27:32;;;;;;;0.10;0.10;;;14.90;99.90;;;;;;5069758;28;20032;-68
2022/07/08 04:29:57;;;;;;;0.00;0.00;;;14.90;99.90;;;;;;5069549;28;20500;-68
2022/07/08 04:32:23;;;;;;;0.10;0.10;;;15.00;99.90;;;;;;5068974;28;20102;-68
2022/07/08 04:34:50;;;;;;;0.00;0.00;;;15.00;99.90;;;;;;5083952;28;20687;-68
2022/07/08 04:37:15;;;;;;;0.52;0.52;;;15.10;99.90;;;;;;5060420;28;20075;-68
2022/07/08 04:39:41;;;;;;;0.03;0.03;;;15.20;99.90;;;;;;5050121;28;20084;-68
2022/07/08 04:42:06;;;;;;;0.10;0.10;;;15.20;99.90;;;;;;5049340;28;20049;-68
2022/07/08 04:44:32;;;;;;;0.85;0.70;;;15.30;99.90;;;;;;5039856;28;20036;-68
2022/07/08 04:46:57;;;;;;;0.10;0.10;;;15.30;99.90;;;;;;5085243;28;20059;-68
2022/07/08 04:49:24;;;;;;;0.00;0.00;;;15.40;99.90;;;;;;5057566;28;20080;-68
2022/07/08 04:51:50;;;;;;;0.00;0.00;;;15.40;99.90;;;;;;5087802;28;20055;-68
2022/07/08 04:54:16;;;;;;;0.03;0.03;;;15.40;99.90;;;;;;5085667;28;20441;-68
2022/07/08 04:56:41;;;;;;;0.00;0.00;;;15.50;99.90;;;;;;5069035;28;20407;-68
2022/07/08 04:59:08;;;;;;;0.10;0.10;;;15.50;99.90;;;;;;5047782;28;20049;-68
2022/07/08 05:01:34;;;;;;;0.00;0.00;;;15.60;99.90;;;;;;5068399;28;20099;-68
2022/07/08 05:03:59;;;;;;;0.00;0.00;;;15.60;99.90;;;;;;5078859;28;20071;-68
2022/07/08 05:06:25;;;;;;;0.03;0.03;;;15.60;99.90;;;;;;5071261;28;20539;-68
2022/07/08 05:08:50;;;;;;;0.25;0.20;;;15.60;99.90;;;;;;5082507;28;20093;-68
2022/07/08 05:11:16;;;;;;;0.47;0.47;;;15.70;99.90;;;;;;5064992;28;20672;-68
2022/07/08 05:13:41;;;;;;;0.00;0.00;;;15.80;99.90;;;;;;5071347;28;20133;-68
2022/07/08 05:16:07;;;;;;;0.10;0.10;;;15.80;99.90;;;;;;5069692;28;20123;-68
2022/07/08 05:18:32;;;;;;;0.00;0.00;;;15.80;99.90;;;;;;5079624;28;20050;-68
2022/07/08 05:20:58;;;;;;;0.00;0.00;;;15.90;99.90;;;;;;5065278;28;20048;-68
2022/07/08 05:23:24;;;;;;;0.08;0.08;;;15.90;99.90;;;;;;5030797;28;20051;-68
2022/07/08 05:25:49;;;;;;;0.10;0.10;;;15.90;99.90;;;;;;5030843;28;20053;-68
2022/07/08 05:28:15;;;;;;;0.20;0.20;;;15.90;99.90;;;;;;5071436;28;20079;-68
2022/07/08 05:30:40;;;;;;;0.10;0.10;;;16.00;99.90;;;;;;5068513;28;20044;-68
2022/07/08 05:33:06;;;;;;;0.10;0.10;;;16.00;99.90;;;;;;5071246;28;20379;-68
2022/07/08 05:35:32;;;;;;;0.10;0.10;;;16.00;99.90;;;;;;5077143;28;20048;-68
2022/07/08 05:37:57;;;;;;;0.00;0.00;;;16.10;99.90;;;;;;5068456;28;20040;-68
2022/07/08 05:40:23;;;;;;;0.10;0.10;;;16.20;99.90;;;;;;5049912;28;20288;-68
2022/07/08 05:42:48;;;;;;;0.10;0.10;;;16.20;99.90;;;;;;5030512;28;20075;-68
2022/07/08 05:45:14;;;;;;;7.03;0.75;;;16.30;99.90;;;;;;5086907;28;20043;-68
2022/07/08 05:47:40;;;;;;;0.10;0.10;;;16.40;99.90;;;;;;5075566;28;20070;-68
2022/07/08 05:50:06;;;;;;;0.00;0.00;;;16.40;99.90;;;;;;5072195;28;20064;-68
2022/07/08 05:52:32;;;;;;;0.00;0.00;;;16.40;99.90;;;;;;5065737;28;20506;-68
2022/07/08 05:54:57;;;;;;;0.00;0.00;;;16.40;99.90;;;;;;5071118;28;20142;-68
2022/07/08 05:57:23;;;;;;;0.00;0.00;;;16.50;99.90;;;;;;5068959;28;20056;-68
2022/07/08 05:59:50;;;;;;;0.05;0.05;;;16.50;99.90;;;;;;5058779;28;20496;-68
2022/07/08 06:02:17;;;;;;;0.05;0.05;;;16.50;99.90;;;;;;5067025;28;20052;-68
2022/07/08 06:04:42;;;;;;;0.10;0.10;;;16.70;99.90;;;;;;5088923;28;20052;-68
2022/07/08 06:07:08;;;;;;;3.38;0.75;;;16.70;99.90;;;;;;5068833;28;20041;-68
2022/07/08 06:09:34;;;;;;;0.00;0.00;;;16.80;99.90;;;;;;5081517;28;20083;-68
2022/07/08 06:11:59;;;;;;;0.00;0.00;;;16.80;99.90;;;;;;5070437;28;20039;-68
2022/07/08 06:14:25;;;;;;;0.00;0.00;;;16.90;99.90;;;;;;5061474;28;20312;-68
2022/07/08 06:16:51;;;;;;;0.10;0.10;;;17.00;99.90;;;;;;5047856;28;20063;-68
2022/07/08 06:19:17;;;;;;;0.03;0.03;;;17.00;99.90;;;;;;5084278;28;20070;-68
2022/07/08 06:21:43;;;;;;;0.25;0.25;;;17.10;99.90;;;;;;5068413;28;20041;-68
2022/07/08 06:24:09;;;;;;;0.00;0.00;;;17.10;99.90;;;;;;5068377;28;20447;-68
2022/07/08 06:26:36;;;;;;;1.23;0.73;;;17.20;99.90;;;;;;5074809;28;20080;-68
2022/07/08 06:29:01;;;;;;;0.00;0.00;;;17.10;99.90;;;;;;5088317;28;20097;-68
2022/07/08 06:31:27;;;;;;;3.83;1.45;;;17.20;99.90;;;;;;5070410;28;20052;-68
2022/07/08 06:33:56;;;;;;;9.55;2.05;;;17.20;99.90;;;;;;5059389;28;20064;-68
2022/07/08 06:36:23;;;;;;;0.00;0.00;;;17.20;99.90;;;;;;5072226;28;20048;-68
2022/07/08 06:38:49;;;;;;;0.52;0.52;;;17.20;99.90;;;;;;5060352;28;20040;-68
2022/07/08 06:41:15;;;;;;;0.08;0.08;;;17.30;99.90;;;;;;5052816;28;20049;-68
2022/07/08 06:43:40;;;;;;;2.28;1.27;;;17.30;99.90;;;;;;5063369;28;20068;-68
2022/07/08 06:46:06;;;;;;;0.00;0.00;;;17.40;99.90;;;;;;5075223;28;20119;-68
2022/07/08 06:48:31;;;;;;;0.13;0.13;;;17.40;99.90;;;;;;5072654;28;20068;-68
2022/07/08 06:50:57;;;;;;;0.20;0.20;;;17.50;99.90;;;;;;5092472;28;20044;-68
2022/07/08 06:53:22;;;;;;;0.43;0.40;;;17.50;99.90;;;;;;5091945;28;20121;-68
2022/07/08 06:55:48;;;;;;;0.30;0.30;;;17.50;99.90;;;;;;5072082;28;20044;-68
2022/07/08 06:58:13;;;;;;;3.42;1.38;;;17.50;99.90;;;;;;5063061;28;20180;-68
2022/07/08 07:00:39;;;;;;;0.00;0.00;;;17.50;99.90;;;;;;5051907;28;20575;-68
2022/07/08 07:03:04;;;;;;;0.00;0.00;;;17.50;99.90;;;;;;5034042;28;20411;-68
2022/07/08 07:05:31;;;;;;;0.10;0.10;;;17.50;99.90;;;;;;5068959;28;20459;-68
2022/07/08 07:07:56;;;;;;;0.10;0.10;;;17.60;99.90;;;;;;5069268;28;20049;-68
2022/07/08 07:10:22;;;;;;;0.20;0.20;;;17.60;99.90;;;;;;5063655;28;20060;-68
2022/07/08 07:12:47;;;;;;;0.10;0.10;;;17.60;99.90;;;;;;5080204;28;20037;-68
2022/07/08 07:15:13;;;;;;;0.38;0.38;;;17.60;99.90;;;;;;5053820;28;20052;-68
2022/07/08 07:17:42;;;;;;;0.00;0.00;;;17.70;99.90;;;;;;5074012;28;20043;-68
2022/07/08 07:20:08;;;;;;;0.00;0.00;;;17.70;99.90;;;;;;5067364;28;20052;-68
2022/07/08 07:22:34;;;;;;;0.30;0.30;;;17.80;99.90;;;;;;5060568;28;20216;-68
2022/07/08 07:25:00;;;;;;;0.10;0.10;;;17.80;99.90;;;;;;5062300;28;20140;-68
2022/07/08 07:27:26;;;;;;;0.47;0.45;;;17.80;99.90;;;;;;5061439;28;20056;-68
2022/07/08 07:29:51;;;;;;;0.45;0.30;;;17.80;99.90;;;;;;5058766;28;20040;-68
2022/07/08 07:32:17;;;;;;;0.43;0.32;;;17.90;99.90;;;;;;5066744;28;20040;-68
2022/07/08 07:34:42;;;;;;;0.00;0.00;;;17.90;99.90;;;;;;5061943;28;20186;-68
2022/07/08 07:37:08;;;;;;;0.28;0.28;;;17.90;99.90;;;;;;5058226;28;20108;-68
2022/07/08 07:39:34;;;;;;;0.10;0.10;;;18.00;99.90;;;;;;5064721;28;20058;-68
2022/07/08 07:41:59;;;;;;;0.20;0.20;;;18.00;99.90;;;;;;5064114;28;20085;-68
2022/07/08 07:44:25;;;;;;;0.00;0.00;;;18.10;99.90;;;;;;5050474;28;20052;-68
2022/07/08 07:46:50;;;;;;;0.00;0.00;;;18.10;99.90;;;;;;5064482;28;20032;-68
2022/07/08 07:49:16;;;;;;;1.25;1.15;;;18.20;99.90;;;;;;5062997;28;20521;-68
2022/07/08 07:51:42;;;;;;;0.28;0.17;;;18.20;99.90;;;;;;5046988;28;20063;-68
2022/07/08 07:54:07;;;;;;;0.10;0.10;;;18.30;99.90;;;;;;5065063;28;20048;-68
2022/07/08 07:56:33;;;;;;;0.00;0.00;;;18.30;99.90;;;;;;5074561;28;20049;-68
2022/07/08 07:58:59;;;;;;;0.20;0.20;;;18.30;99.90;;;;;;5086525;28;20115;-68
2022/07/08 08:01:25;;;;;;;0.00;0.00;;;18.30;99.90;;;;;;5079670;28;20056;-68
2022/07/08 08:03:51;;;;;;;0.10;0.10;;;18.30;99.90;;;;;;5045836;28;20060;-68
2022/07/08 08:06:18;;;;;;;0.00;0.00;;;18.40;99.90;;;;;;5054786;28;20049;-68
2022/07/08 08:08:44;;;;;;;0.20;0.20;;;18.40;99.90;;;;;;5072683;28;20087;-68
2022/07/08 08:11:09;;;;;;;0.10;0.10;;;18.40;99.90;;;;;;5089078;28;20460;-68
2022/07/08 08:13:35;;;;;;;0.10;0.10;;;18.50;99.90;;;;;;5081082;28;20044;-68
2022/07/08 08:16:00;;;;;;;0.50;0.50;;;18.50;99.90;;;;;;5068447;28;20075;-68
2022/07/08 08:18:26;;;;;;;0.10;0.10;;;18.60;99.90;;;;;;5081261;28;20123;-68
2022/07/08 08:20:51;;;;;;;0.00;0.00;;;18.60;99.90;;;;;;5090692;28;20055;-68
2022/07/08 08:23:17;;;;;;;0.10;0.10;;;18.60;99.90;;;;;;5069817;28;20482;-68
2022/07/08 08:25:43;;;;;;;0.10;0.10;;;18.70;99.90;;;;;;5069765;28;20044;-68
2022/07/08 08:28:08;;;;;;;0.08;0.08;;;18.80;99.90;;;;;;5070429;28;20048;-68
2022/07/08 08:30:34;;;;;;;0.22;0.22;;;18.90;99.90;;;;;;5090406;28;20048;-68
2022/07/08 08:33:00;;;;;;;0.03;0.03;;;18.90;99.90;;;;;;5076545;28;20079;-68
2022/07/08 08:35:25;;;;;;;0.00;0.00;;;18.90;99.90;;;;;;5063028;28;20048;-68
2022/07/08 08:37:51;;;;;;;0.20;0.20;;;19.00;99.90;;;;;;5090510;28;20123;-68
2022/07/08 08:40:19;;;;;;;0.10;0.10;;;19.10;99.90;;;;;;5082889;28;20036;-68
2022/07/08 08:42:45;;;;;;;1.42;0.80;;;19.20;99.90;;;;;;5032358;28;20048;-68
2022/07/08 08:45:11;;;;;;;0.10;0.10;;;19.10;99.90;;;;;;5061408;28;20484;-68
2022/07/08 08:47:36;;;;;;;0.00;0.00;;;19.10;99.90;;;;;;5070709;28;20463;-68
2022/07/08 08:52:51;;;;;;;0.20;0.20;;;19.30;99.90;;;;;;5069426;28;20114;-68
2022/07/08 08:55:28;;;;;;;0.10;0.10;;;19.30;99.90;;;;;;5034411;28;20128;-68
2022/07/08 08:58:04;;;;;;;0.20;0.20;;;19.40;99.90;;;;;;5078852;28;20036;-68
2022/07/08 09:00:31;;;;;;;0.00;0.00;;;19.40;99.90;;;;;;5049161;28;20423;-68
2022/07/08 09:02:58;;;;;;;0.03;0.03;;;19.40;99.90;;;;;;5059250;28;20053;-68
2022/07/08 09:05:25;;;;;;;0.75;0.75;;;19.50;99.90;;;;;;5069985;28;20277;-68
2022/07/08 09:07:51;;;;;;;0.00;0.00;;;19.50;99.90;;;;;;5078700;28;20530;-68
2022/07/08 09:10:18;;;;;;;0.10;0.10;;;19.60;99.90;;;;;;5088417;28;20165;-68
2022/07/08 09:13:00;;;;;;;0.00;0.00;;;19.60;99.90;;;;;;5062606;28;20048;-68
2022/07/08 09:15:42;;;;;;;0.35;0.35;;;19.60;99.90;;;;;;5073454;28;20044;-68
2022/07/08 09:18:18;;;;;;;0.00;0.00;;;19.70;99.90;;;;;;5071239;28;20052;-69
2022/07/08 09:20:47;;;;;;;0.10;0.10;;;19.80;99.90;;;;;;5070223;28;20048;-68
2022/07/08 09:23:34;;;;;;;0.00;0.00;;;19.90;99.90;;;;;;5084626;28;20048;-69
2022/07/08 09:26:02;;;;;;;0.10;0.10;;;20.00;99.90;;;;;;5048836;28;20041;-68
2022/07/08 09:28:35;;;;;;;1.38;0.95;;;20.00;99.90;;;;;;5052862;28;20045;-68
2022/07/08 09:31:04;;;;;;;0.05;0.05;;;20.10;99.90;;;;;;5069813;28;20128;-68
2022/07/08 09:33:31;;;;;;;0.00;0.00;;;20.20;99.90;;;;;;5086993;28;20059;-68
2022/07/08 09:36:00;;;;;;;0.00;0.00;;;20.30;99.90;;;;;;5057495;28;20033;-68
2022/07/08 09:38:27;;;;;;;0.28;0.17;;;20.40;99.90;;;;;;5045185;28;20071;-68
2022/07/08 09:40:58;;;;;;;0.22;0.22;;;20.50;99.90;;;;;;5031291;28;20052;-68
2022/07/08 09:43:24;;;;;;;0.20;0.20;;;20.60;99.90;;;;;;5061974;28;20546;-68
2022/07/08 09:45:50;;;;;;;0.00;0.00;;;20.60;99.90;;;;;;5055028;28;20085;-68
2022/07/08 09:48:16;;;;;;;0.10;0.10;;;20.60;99.90;;;;;;5088285;28;20059;-68
2022/07/08 09:50:46;;;;;;;0.15;0.15;;;20.70;99.90;;;;;;5087210;28;20044;-68
2022/07/08 09:53:25;;;;;;;0.00;0.00;;;20.80;99.90;;;;;;5083864;28;20436;-68
2022/07/08 09:55:52;;;;;;;0.57;0.57;;;20.70;99.90;;;;;;5070101;28;20554;-68
2022/07/08 09:58:23;;;;;;;0.05;0.05;;;20.70;99.90;;;;;;5082110;28;20047;-69
2022/07/08 10:00:51;;;;;;;0.60;0.57;;;20.60;99.90;;;;;;5087726;28;20064;-68
2022/07/08 10:03:18;;;;;;;0.10;0.10;;;20.60;99.90;;;;;;5058251;28;20048;-68
2022/07/08 10:05:44;;;;;;;0.10;0.10;;;20.70;99.90;;;;;;5088196;28;20565;-69
2022/07/08 10:08:10;;;;;;;0.08;0.08;;;20.90;99.90;;;;;;5087379;28;20170;-68
2022/07/08 10:10:38;;;;;;;0.05;0.05;;;20.90;99.90;;;;;;5079506;28;20067;-68
2022/07/08 10:13:05;;;;;;;0.40;0.40;;;20.70;99.90;;;;;;5030912;28;20147;-68
2022/07/08 10:15:33;;;;;;;0.00;0.00;;;20.70;99.90;;;;;;5066995;28;20036;-68
2022/07/08 10:18:10;;;;;;;0.00;0.00;;;20.70;99.90;;;;;;5050813;28;20040;-69
2022/07/08 10:20:39;;;;;;;0.45;0.45;;;20.50;99.90;;;;;;5059726;28;20128;-69
2022/07/08 10:23:08;;;;;;;0.25;0.25;;;20.50;99.90;;;;;;5063669;28;20102;-68
2022/07/08 10:25:34;;;;;;;1.45;0.52;;;20.70;99.90;;;;;;5067823;28;20055;-68
2022/07/08 10:28:07;;;;;;;0.10;0.10;;;20.80;99.90;;;;;;5075767;28;20484;-69
2022/07/08 10:30:50;;;;;;;0.03;0.03;;;20.80;99.90;;;;;;5058889;28;20062;-68
2022/07/08 10:33:44;;;;;;;0.00;0.00;;;20.70;99.90;;;;;;5071350;28;20047;-68
2022/07/08 10:36:09;;;;;;;0.00;0.00;;;20.50;99.90;;;;;;5072537;28;20045;-68
2022/07/08 10:38:40;;;;;;;0.00;0.00;;;20.40;99.90;;;;;;5047724;28;20047;-68
2022/07/08 10:41:17;;;;;;;0.08;0.08;;;20.30;99.90;;;;;;5051444;28;20041;-68
2022/07/08 10:43:51;;;;;;;18.63;0.50;;;20.30;99.90;;;;;;5046903;28;20060;-68
2022/07/08 10:46:17;;;;;;;0.08;0.08;;;20.20;99.90;;;;;;5088075;28;20048;-68
2022/07/08 10:48:59;;;;;;;0.00;0.00;;;20.20;99.90;;;;;;5050436;28;20049;-68
2022/07/08 10:51:25;;;;;;;0.00;0.00;;;20.20;99.90;;;;;;5048265;28;20048;-68
2022/07/08 10:53:58;;;;;;;2.72;0.77;;;20.20;99.90;;;;;;5073998;28;20036;-68
2022/07/08 10:56:49;;;;;;;0.38;0.32;;;20.20;99.90;;;;;;5067777;28;20084;-68
2022/07/08 10:59:19;;;;;;;0.00;0.00;;;20.20;99.90;;;;;;5074027;28;20040;-68
2022/07/08 11:02:13;;;;;;;0.80;0.75;;;20.40;99.90;;;;;;5065646;28;20052;-68
2022/07/08 11:04:39;;;;;;;0.10;0.10;;;20.70;99.90;;;;;;5064179;28;20093;-68
2022/07/08 11:07:17;;;;;;;0.10;0.10;;;20.70;99.90;;;;;;5067416;28;20045;-68
2022/07/08 11:09:49;;;;;;;0.15;0.15;;;20.70;99.90;;;;;;5087355;28;20133;-68
2022/07/08 11:12:24;;;;;;;0.00;0.00;;;20.90;99.90;;;;;;5060595;28;20064;-68
2022/07/08 11:14:52;;;;;;;4.88;0.43;;;21.30;99.90;;;;;;5058253;28;20044;-68
2022/07/08 11:17:23;;;;;;;0.05;0.05;;;21.50;99.90;;;;;;5078108;28;20403;-67
2022/07/08 11:19:50;;;;;;;0.10;0.10;;;21.40;99.90;;;;;;5069071;28;20044;-67
2022/07/08 11:22:15;;;;;;;3.13;1.13;;;21.40;99.90;;;;;;5087078;28;20040;-67
2022/07/08 11:24:43;;;;;;;0.08;0.08;;;21.40;99.90;;;;;;5068813;28;20048;-68
2022/07/08 11:27:09;;;;;;;4.47;1.35;;;21.40;99.90;;;;;;5084978;28;20124;-68
2022/07/08 11:29:35;;;;;;;0.10;0.10;;;21.30;99.90;;;;;;5083185;28;20115;-68
2022/07/08 11:32:05;;;;;;;4.68;0.40;;;21.20;99.90;;;;;;5091948;28;20040;-67
2022/07/08 11:34:31;;;;;;;0.00;0.00;;;21.30;99.90;;;;;;5087032;28;20668;-67
2022/07/08 11:37:01;;;;;;;2.55;0.80;;;21.50;99.90;;;;;;5052040;28;20523;-68
2022/07/08 11:39:27;;;;;;;0.00;0.00;;;21.60;99.90;;;;;;5074806;28;20040;-68
2022/07/08 11:41:53;;;;;;;2.55;1.00;;;22.10;99.90;;;;;;5071450;28;20094;-67
2022/07/08 11:44:20;;;;;;;0.10;0.10;;;21.90;99.90;;;;;;5070352;28;20047;-67
2022/07/08 11:46:48;;;;;;;1.15;1.05;;;21.70;99.90;;;;;;5079634;28;20032;-68
2022/07/08 11:49:14;;;;;;;0.00;0.00;;;21.70;99.90;;;;;;5066392;28;20040;-67
2022/07/08 11:51:50;;;;;;;0.08;0.08;;;21.70;99.90;;;;;;5048456;28;20045;-67
2022/07/08 11:54:20;;;;;;;0.00;0.00;;;21.90;99.90;;;;;;5069470;28;20044;-67
2022/07/08 11:56:46;;;;;;;0.75;0.75;;;22.20;99.90;;;;;;5063360;28;20493;-67
2022/07/08 11:59:11;;;;;;;0.30;0.30;;;22.20;99.90;;;;;;5069595;28;20365;-68
2022/07/08 12:01:38;;;;;;;0.55;0.55;;;22.20;99.90;;;;;;5070894;28;20056;-67
2022/07/08 12:04:07;;;;;;;0.00;0.00;;;22.20;99.90;;;;;;5052807;28;20555;-68
2022/07/08 12:06:34;;;;;;;0.70;0.30;;;22.00;99.90;;;;;;5082015;28;20051;-68
2022/07/08 12:09:09;;;;;;;0.00;0.00;;;21.90;99.90;;;;;;5083968;28;20054;-68
2022/07/08 12:11:40;;;;;;;0.00;0.00;;;22.00;99.90;;;;;;5090843;28;20043;-68
2022/07/08 12:14:08;;;;;;;0.00;0.00;;;22.30;99.90;;;;;;5088945;28;20055;-68
2022/07/08 12:16:45;;;;;;;0.20;0.20;;;22.70;99.90;;;;;;5069801;28;20872;-68
2022/07/08 12:19:31;;;;;;;3.35;1.50;;;22.90;99.90;;;;;;5064005;28;20041;-67
2022/07/08 12:21:59;;;;;;;0.50;0.50;;;23.00;99.90;;;;;;5069407;28;20048;-67
2022/07/08 12:24:39;;;;;;;1.75;0.63;;;23.20;99.90;;;;;;5070542;28;20044;-67
2022/07/08 12:27:07;;;;;;;0.03;0.03;;;23.20;99.90;;;;;;5065984;28;20041;-68
2022/07/08 12:29:38;;;;;;;0.00;0.00;;;23.30;99.90;;;;;;5085578;28;20433;-68
2022/07/08 12:32:05;;;;;;;0.00;0.00;;;23.60;99.90;;;;;;5084711;28;20779;-68
2022/07/08 12:34:30;;;;;;;0.00;0.00;;;23.20;99.90;;;;;;5047645;28;20059;-68
2022/07/08 12:37:19;;;;;;;2.08;0.70;;;23.20;99.90;;;;;;5069786;28;20036;-68
2022/07/08 12:39:45;;;;;;;0.20;0.15;;;23.20;99.90;;;;;;5051592;28;20056;-68
2022/07/08 12:42:11;;;;;;;1.83;1.60;;;22.90;99.90;;;;;;5060134;28;20044;-68
2022/07/08 12:44:39;;;;;;;0.03;0.03;;;23.50;99.90;;;;;;5080108;28;20048;-68
2022/07/08 12:47:08;;;;;;;0.10;0.10;;;24.00;99.90;;;;;;5074544;28;20078;-68
2022/07/08 12:49:35;;;;;;;0.03;0.03;;;24.40;99.90;;;;;;5090202;28;20101;-68
2022/07/08 12:52:02;;;;;;;0.43;0.43;;;24.50;99.90;;;;;;5090194;28;20062;-68
2022/07/08 12:54:28;;;;;;;0.00;0.00;;;24.70;99.90;;;;;;5081394;28;20067;-68